Brazo Largo, Argentina
Current Conditions -  °F | °C
As of 6:00 AM on Thursday 27 Nov 2014 (Local Time) from SADF Reporting Station
Light Fog Light Fog  
Wind Chill: 57°   Ceiling: Unl
Heat Index: 57°   Visibility: 6mi
Dew Point: 57°   Wind: 0mph
Humidity: 100%   Direction: NA
Pressure: 30"   Gusts: NA
Location:  33.78°S, 58.6°W
Report Text: SADF 270900Z 00000KT 9000 MIFG NSC 14/14 Q1016
Loading
Personal Weather Stations






























Interactive Weather Map New forecast layout! Learn more

10-Day Weather Forecast

Advertisements
Track Severe Weather on mobile